sensor_id;sensor_type;location;lat;lon;timestamp;P1;durP1;ratioP1;P2;durP2;ratioP2
53881;SDS011;39794;55.782;37.452;2023-11-18T00:00:33;10.55;;;4.80;;
53881;SDS011;39794;55.782;37.452;2023-11-18T00:03:03;8.18;;;3.85;;
53881;SDS011;39794;55.782;37.452;2023-11-18T00:05:32;10.65;;;4.97;;
53881;SDS011;39794;55.782;37.452;2023-11-18T00:08:01;10.93;;;4.53;;
53881;SDS011;39794;55.782;37.452;2023-11-18T00:10:31;10.70;;;4.80;;
53881;SDS011;39794;55.782;37.452;2023-11-18T00:13:00;9.45;;;4.82;;
53881;SDS011;39794;55.782;37.452;2023-11-18T00:15:30;9.32;;;4.68;;
53881;SDS011;39794;55.782;37.452;2023-11-18T00:18:01;9.35;;;4.43;;
53881;SDS011;39794;55.782;37.452;2023-11-18T00:20:31;8.10;;;4.95;;
53881;SDS011;39794;55.782;37.452;2023-11-18T00:23:02;12.43;;;4.55;;
53881;SDS011;39794;55.782;37.452;2023-11-18T00:25:32;6.65;;;4.28;;
53881;SDS011;39794;55.782;37.452;2023-11-18T00:28:03;8.95;;;4.63;;
53881;SDS011;39794;55.782;37.452;2023-11-18T00:30:34;13.02;;;4.60;;
53881;SDS011;39794;55.782;37.452;2023-11-18T00:33:03;7.88;;;4.88;;
53881;SDS011;39794;55.782;37.452;2023-11-18T00:35:33;10.85;;;5.15;;
53881;SDS011;39794;55.782;37.452;2023-11-18T00:38:02;12.30;;;5.05;;
53881;SDS011;39794;55.782;37.452;2023-11-18T00:40:31;10.80;;;4.75;;
53881;SDS011;39794;55.782;37.452;2023-11-18T00:42:59;12.00;;;5.28;;
53881;SDS011;39794;55.782;37.452;2023-11-18T00:45:29;10.88;;;5.07;;
53881;SDS011;39794;55.782;37.452;2023-11-18T00:47:58;10.73;;;5.53;;
53881;SDS011;39794;55.782;37.452;2023-11-18T00:50:27;9.88;;;4.60;;
53881;SDS011;39794;55.782;37.452;2023-11-18T00:52:57;10.32;;;5.68;;
53881;SDS011;39794;55.782;37.452;2023-11-18T00:55:26;9.10;;;5.32;;
53881;SDS011;39794;55.782;37.452;2023-11-18T00:57:55;13.95;;;5.60;;
53881;SDS011;39794;55.782;37.452;2023-11-18T01:00:23;9.30;;;4.85;;
53881;SDS011;39794;55.782;37.452;2023-11-18T01:02:53;13.48;;;5.80;;
53881;SDS011;39794;55.782;37.452;2023-11-18T01:05:23;10.15;;;4.68;;
53881;SDS011;39794;55.782;37.452;2023-11-18T01:07:52;14.00;;;5.22;;
53881;SDS011;39794;55.782;37.452;2023-11-18T01:10:22;12.13;;;5.47;;
53881;SDS011;39794;55.782;37.452;2023-11-18T01:12:51;15.40;;;5.70;;
53881;SDS011;39794;55.782;37.452;2023-11-18T01:15:22;11.57;;;5.05;;
53881;SDS011;39794;55.782;37.452;2023-11-18T01:17:51;11.55;;;5.20;;
53881;SDS011;39794;55.782;37.452;2023-11-18T01:20:20;16.58;;;5.72;;
53881;SDS011;39794;55.782;37.452;2023-11-18T01:22:49;12.57;;;5.30;;
53881;SDS011;39794;55.782;37.452;2023-11-18T01:25:19;12.73;;;5.13;;
53881;SDS011;39794;55.782;37.452;2023-11-18T01:27:49;8.30;;;4.40;;
53881;SDS011;39794;55.782;37.452;2023-11-18T01:30:18;14.13;;;5.32;;
53881;SDS011;39794;55.782;37.452;2023-11-18T01:32:47;8.88;;;4.55;;
53881;SDS011;39794;55.782;37.452;2023-11-18T01:35:16;17.65;;;5.95;;
53881;SDS011;39794;55.782;37.452;2023-11-18T01:37:45;9.90;;;5.78;;
53881;SDS011;39794;55.782;37.452;2023-11-18T01:40:16;10.13;;;5.65;;
53881;SDS011;39794;55.782;37.452;2023-11-18T01:42:44;12.68;;;5.55;;
53881;SDS011;39794;55.782;37.452;2023-11-18T01:45:15;11.25;;;5.30;;
53881;SDS011;39794;55.782;37.452;2023-11-18T01:47:44;17.58;;;5.68;;
53881;SDS011;39794;55.782;37.452;2023-11-18T01:50:15;13.70;;;5.78;;
53881;SDS011;39794;55.782;37.452;2023-11-18T01:52:45;15.10;;;7.03;;
53881;SDS011;39794;55.782;37.452;2023-11-18T01:55:15;9.85;;;5.32;;
53881;SDS011;39794;55.782;37.452;2023-11-18T01:57:44;13.25;;;6.28;;
53881;SDS011;39794;55.782;37.452;2023-11-18T02:00:14;14.18;;;5.40;;
53881;SDS011;39794;55.782;37.452;2023-11-18T02:02:45;10.02;;;5.55;;
53881;SDS011;39794;55.782;37.452;2023-11-18T02:05:15;13.77;;;5.85;;
53881;SDS011;39794;55.782;37.452;2023-11-18T02:07:45;13.30;;;5.55;;
53881;SDS011;39794;55.782;37.452;2023-11-18T02:10:14;9.10;;;4.78;;
53881;SDS011;39794;55.782;37.452;2023-11-18T02:12:48;10.32;;;5.68;;
53881;SDS011;39794;55.782;37.452;2023-11-18T02:15:22;10.57;;;6.13;;
53881;SDS011;39794;55.782;37.452;2023-11-18T02:17:54;12.05;;;5.57;;
53881;SDS011;39794;55.782;37.452;2023-11-18T02:20:26;6.68;;;3.15;;
53881;SDS011;39794;55.782;37.452;2023-11-18T02:22:54;11.43;;;5.30;;
53881;SDS011;39794;55.782;37.452;2023-11-18T02:25:23;9.43;;;5.40;;
53881;SDS011;39794;55.782;37.452;2023-11-18T02:27:55;12.60;;;6.00;;
53881;SDS011;39794;55.782;37.452;2023-11-18T02:30:24;11.90;;;5.38;;
53881;SDS011;39794;55.782;37.452;2023-11-18T02:32:55;10.90;;;5.18;;
53881;SDS011;39794;55.782;37.452;2023-11-18T02:35:30;8.10;;;4.18;;
53881;SDS011;39794;55.782;37.452;2023-11-18T02:38:02;9.68;;;5.20;;
53881;SDS011;39794;55.782;37.452;2023-11-18T02:40:33;12.73;;;5.70;;
53881;SDS011;39794;55.782;37.452;2023-11-18T02:43:05;12.45;;;5.95;;
53881;SDS011;39794;55.782;37.452;2023-11-18T02:45:34;14.45;;;5.90;;
53881;SDS011;39794;55.782;37.452;2023-11-18T02:48:04;6.65;;;3.58;;
53881;SDS011;39794;55.782;37.452;2023-11-18T02:50:35;11.15;;;5.30;;
53881;SDS011;39794;55.782;37.452;2023-11-18T02:53:04;15.10;;;5.57;;
53881;SDS011;39794;55.782;37.452;2023-11-18T02:55:33;14.48;;;5.55;;
53881;SDS011;39794;55.782;37.452;2023-11-18T02:58:01;14.35;;;5.90;;
53881;SDS011;39794;55.782;37.452;2023-11-18T03:00:35;11.43;;;5.03;;
53881;SDS011;39794;55.782;37.452;2023-11-18T03:03:05;10.75;;;5.30;;
53881;SDS011;39794;55.782;37.452;2023-11-18T03:05:34;18.25;;;4.70;;
53881;SDS011;39794;55.782;37.452;2023-11-18T03:08:03;13.65;;;5.13;;
53881;SDS011;39794;55.782;37.452;2023-11-18T03:10:33;14.38;;;5.50;;
53881;SDS011;39794;55.782;37.452;2023-11-18T03:13:02;9.15;;;5.00;;
53881;SDS011;39794;55.782;37.452;2023-11-18T03:15:31;12.60;;;5.50;;
53881;SDS011;39794;55.782;37.452;2023-11-18T03:18:01;10.90;;;5.05;;
53881;SDS011;39794;55.782;37.452;2023-11-18T03:20:30;13.85;;;5.82;;
53881;SDS011;39794;55.782;37.452;2023-11-18T03:22:59;11.60;;;4.85;;
53881;SDS011;39794;55.782;37.452;2023-11-18T03:25:29;11.65;;;5.82;;
53881;SDS011;39794;55.782;37.452;2023-11-18T03:28:00;12.73;;;5.40;;
53881;SDS011;39794;55.782;37.452;2023-11-18T03:30:29;19.05;;;5.35;;
53881;SDS011;39794;55.782;37.452;2023-11-18T03:32:57;12.07;;;5.13;;
53881;SDS011;39794;55.782;37.452;2023-11-18T03:35:27;7.72;;;4.22;;
53881;SDS011;39794;55.782;37.452;2023-11-18T03:37:56;14.00;;;5.63;;
53881;SDS011;39794;55.782;37.452;2023-11-18T03:40:25;12.77;;;4.88;;
53881;SDS011;39794;55.782;37.452;2023-11-18T03:42:56;12.82;;;4.75;;
53881;SDS011;39794;55.782;37.452;2023-11-18T03:45:25;11.18;;;4.25;;
53881;SDS011;39794;55.782;37.452;2023-11-18T03:47:54;13.63;;;4.97;;
53881;SDS011;39794;55.782;37.452;2023-11-18T03:50:23;11.02;;;4.30;;
53881;SDS011;39794;55.782;37.452;2023-11-18T03:52:53;17.95;;;4.78;;
53881;SDS011;39794;55.782;37.452;2023-11-18T03:55:22;16.02;;;4.72;;
53881;SDS011;39794;55.782;37.452;2023-11-18T03:57:50;12.90;;;5.57;;
53881;SDS011;39794;55.782;37.452;2023-11-18T04:00:19;9.85;;;4.88;;
53881;SDS011;39794;55.782;37.452;2023-11-18T04:02:48;11.85;;;4.28;;
53881;SDS011;39794;55.782;37.452;2023-11-18T04:05:17;8.05;;;4.43;;
53881;SDS011;39794;55.782;37.452;2023-11-18T04:07:45;11.52;;;4.88;;
53881;SDS011;39794;55.782;37.452;2023-11-18T04:10:15;7.15;;;3.20;;
53881;SDS011;39794;55.782;37.452;2023-11-18T04:12:45;12.85;;;4.90;;
53881;SDS011;39794;55.782;37.452;2023-11-18T04:15:15;9.13;;;4.35;;
53881;SDS011;39794;55.782;37.452;2023-11-18T04:17:44;12.70;;;3.90;;
53881;SDS011;39794;55.782;37.452;2023-11-18T04:20:12;7.25;;;3.85;;
53881;SDS011;39794;55.782;37.452;2023-11-18T04:22:43;13.05;;;5.35;;
53881;SDS011;39794;55.782;37.452;2023-11-18T04:25:12;10.07;;;4.97;;
53881;SDS011;39794;55.782;37.452;2023-11-18T04:27:43;12.10;;;5.63;;
53881;SDS011;39794;55.782;37.452;2023-11-18T04:30:13;13.77;;;4.60;;
53881;SDS011;39794;55.782;37.452;2023-11-18T04:32:42;11.75;;;3.75;;
53881;SDS011;39794;55.782;37.452;2023-11-18T04:35:11;9.63;;;4.75;;
53881;SDS011;39794;55.782;37.452;2023-11-18T04:37:40;9.15;;;5.00;;
53881;SDS011;39794;55.782;37.452;2023-11-18T04:40:11;8.40;;;4.40;;
53881;SDS011;39794;55.782;37.452;2023-11-18T04:42:41;10.82;;;4.55;;
53881;SDS011;39794;55.782;37.452;2023-11-18T04:45:11;13.05;;;4.78;;
53881;SDS011;39794;55.782;37.452;2023-11-18T04:47:41;12.45;;;4.35;;
53881;SDS011;39794;55.782;37.452;2023-11-18T04:50:12;11.75;;;5.50;;
53881;SDS011;39794;55.782;37.452;2023-11-18T04:52:41;16.30;;;5.13;;
53881;SDS011;39794;55.782;37.452;2023-11-18T04:55:10;10.15;;;5.25;;
53881;SDS011;39794;55.782;37.452;2023-11-18T04:57:42;15.45;;;4.80;;
53881;SDS011;39794;55.782;37.452;2023-11-18T05:00:11;8.65;;;4.90;;
53881;SDS011;39794;55.782;37.452;2023-11-18T05:02:43;11.52;;;4.25;;
53881;SDS011;39794;55.782;37.452;2023-11-18T05:05:15;10.30;;;4.93;;
53881;SDS011;39794;55.782;37.452;2023-11-18T05:07:44;14.30;;;5.03;;
53881;SDS011;39794;55.782;37.452;2023-11-18T05:10:13;13.80;;;5.20;;
53881;SDS011;39794;55.782;37.452;2023-11-18T05:12:45;9.15;;;4.35;;
53881;SDS011;39794;55.782;37.452;2023-11-18T05:15:22;11.38;;;5.03;;
53881;SDS011;39794;55.782;37.452;2023-11-18T05:17:57;11.57;;;5.20;;
53881;SDS011;39794;55.782;37.452;2023-11-18T05:20:26;13.75;;;5.03;;
53881;SDS011;39794;55.782;37.452;2023-11-18T05:22:54;11.25;;;5.22;;
53881;SDS011;39794;55.782;37.452;2023-11-18T05:25:23;10.90;;;5.10;;
53881;SDS011;39794;55.782;37.452;2023-11-18T05:27:53;12.65;;;4.60;;
53881;SDS011;39794;55.782;37.452;2023-11-18T05:30:22;13.05;;;4.40;;
53881;SDS011;39794;55.782;37.452;2023-11-18T05:32:51;7.28;;;4.93;;
53881;SDS011;39794;55.782;37.452;2023-11-18T05:35:20;12.23;;;4.65;;
53881;SDS011;39794;55.782;37.452;2023-11-18T05:40:23;15.10;;;4.65;;
53881;SDS011;39794;55.782;37.452;2023-11-18T05:42:53;10.50;;;4.80;;
53881;SDS011;39794;55.782;37.452;2023-11-18T05:45:22;11.55;;;4.72;;
53881;SDS011;39794;55.782;37.452;2023-11-18T05:47:58;9.45;;;5.38;;
53881;SDS011;39794;55.782;37.452;2023-11-18T05:50:27;15.50;;;5.05;;
53881;SDS011;39794;55.782;37.452;2023-11-18T05:52:56;10.70;;;4.63;;
53881;SDS011;39794;55.782;37.452;2023-11-18T05:55:25;20.83;;;5.30;;
53881;SDS011;39794;55.782;37.452;2023-11-18T05:57:55;14.43;;;4.85;;
53881;SDS011;39794;55.782;37.452;2023-11-18T06:00:24;12.57;;;4.75;;
53881;SDS011;39794;55.782;37.452;2023-11-18T06:03:02;19.48;;;4.80;;
53881;SDS011;39794;55.782;37.452;2023-11-18T06:05:31;8.27;;;4.30;;
53881;SDS011;39794;55.782;37.452;2023-11-18T06:08:02;15.73;;;5.28;;
53881;SDS011;39794;55.782;37.452;2023-11-18T06:10:32;15.00;;;4.70;;
53881;SDS011;39794;55.782;37.452;2023-11-18T06:13:02;12.88;;;4.78;;
53881;SDS011;39794;55.782;37.452;2023-11-18T06:15:31;15.00;;;4.57;;
53881;SDS011;39794;55.782;37.452;2023-11-18T06:18:02;10.82;;;4.30;;
53881;SDS011;39794;55.782;37.452;2023-11-18T06:20:33;9.90;;;3.95;;
53881;SDS011;39794;55.782;37.452;2023-11-18T06:23:05;14.13;;;4.78;;
53881;SDS011;39794;55.782;37.452;2023-11-18T06:25:34;9.73;;;4.07;;
53881;SDS011;39794;55.782;37.452;2023-11-18T06:28:04;13.02;;;4.75;;
53881;SDS011;39794;55.782;37.452;2023-11-18T06:30:35;7.65;;;3.97;;
53881;SDS011;39794;55.782;37.452;2023-11-18T06:33:05;10.40;;;4.50;;
53881;SDS011;39794;55.782;37.452;2023-11-18T06:35:34;11.52;;;4.38;;
53881;SDS011;39794;55.782;37.452;2023-11-18T06:38:03;9.63;;;4.72;;
53881;SDS011;39794;55.782;37.452;2023-11-18T06:40:32;20.63;;;4.80;;
53881;SDS011;39794;55.782;37.452;2023-11-18T06:43:02;7.90;;;4.18;;
53881;SDS011;39794;55.782;37.452;2023-11-18T06:45:43;13.82;;;4.57;;
53881;SDS011;39794;55.782;37.452;2023-11-18T06:48:11;14.13;;;5.10;;
53881;SDS011;39794;55.782;37.452;2023-11-18T06:50:41;14.70;;;5.15;;
53881;SDS011;39794;55.782;37.452;2023-11-18T06:53:12;10.07;;;4.65;;
53881;SDS011;39794;55.782;37.452;2023-11-18T06:55:42;15.25;;;5.38;;
53881;SDS011;39794;55.782;37.452;2023-11-18T06:58:11;18.10;;;5.90;;
53881;SDS011;39794;55.782;37.452;2023-11-18T07:00:40;20.17;;;5.90;;
53881;SDS011;39794;55.782;37.452;2023-11-18T07:03:11;12.57;;;5.03;;
53881;SDS011;39794;55.782;37.452;2023-11-18T07:05:40;16.20;;;5.38;;
53881;SDS011;39794;55.782;37.452;2023-11-18T07:08:11;13.38;;;4.97;;
53881;SDS011;39794;55.782;37.452;2023-11-18T07:10:40;14.95;;;6.55;;
53881;SDS011;39794;55.782;37.452;2023-11-18T07:13:09;9.93;;;4.95;;
53881;SDS011;39794;55.782;37.452;2023-11-18T07:15:38;43.80;;;12.43;;
53881;SDS011;39794;55.782;37.452;2023-11-18T07:18:08;17.50;;;5.70;;
53881;SDS011;39794;55.782;37.452;2023-11-18T07:20:37;16.60;;;5.53;;
53881;SDS011;39794;55.782;37.452;2023-11-18T07:23:05;11.93;;;4.82;;
53881;SDS011;39794;55.782;37.452;2023-11-18T07:25:35;16.35;;;6.13;;
53881;SDS011;39794;55.782;37.452;2023-11-18T07:28:04;17.95;;;6.32;;
53881;SDS011;39794;55.782;37.452;2023-11-18T07:30:35;11.93;;;6.00;;
53881;SDS011;39794;55.782;37.452;2023-11-18T07:33:05;12.98;;;5.63;;
53881;SDS011;39794;55.782;37.452;2023-11-18T07:35:36;20.98;;;6.15;;
53881;SDS011;39794;55.782;37.452;2023-11-18T07:38:05;14.88;;;5.93;;
53881;SDS011;39794;55.782;37.452;2023-11-18T07:40:34;16.02;;;5.35;;
53881;SDS011;39794;55.782;37.452;2023-11-18T07:43:04;13.40;;;5.70;;
53881;SDS011;39794;55.782;37.452;2023-11-18T07:45:34;15.25;;;6.50;;
53881;SDS011;39794;55.782;37.452;2023-11-18T07:48:05;10.88;;;5.28;;
53881;SDS011;39794;55.782;37.452;2023-11-18T07:50:34;12.25;;;5.60;;
53881;SDS011;39794;55.782;37.452;2023-11-18T07:53:04;14.13;;;4.85;;
53881;SDS011;39794;55.782;37.452;2023-11-18T07:55:34;5.68;;;3.40;;
53881;SDS011;39794;55.782;37.452;2023-11-18T07:58:07;11.80;;;5.00;;
53881;SDS011;39794;55.782;37.452;2023-11-18T08:00:38;12.35;;;4.38;;
53881;SDS011;39794;55.782;37.452;2023-11-18T08:03:07;16.45;;;3.47;;
53881;SDS011;39794;55.782;37.452;2023-11-18T08:05:39;6.57;;;3.42;;
53881;SDS011;39794;55.782;37.452;2023-11-18T08:08:12;9.70;;;4.30;;
53881;SDS011;39794;55.782;37.452;2023-11-18T08:10:44;10.40;;;4.00;;
53881;SDS011;39794;55.782;37.452;2023-11-18T08:13:15;6.50;;;2.92;;
53881;SDS011;39794;55.782;37.452;2023-11-18T08:15:44;4.07;;;2.03;;
53881;SDS011;39794;55.782;37.452;2023-11-18T08:18:14;5.05;;;2.30;;
53881;SDS011;39794;55.782;37.452;2023-11-18T08:20:43;3.63;;;1.85;;
53881;SDS011;39794;55.782;37.452;2023-11-18T08:23:13;4.18;;;1.83;;
53881;SDS011;39794;55.782;37.452;2023-11-18T08:25:42;11.50;;;3.08;;
53881;SDS011;39794;55.782;37.452;2023-11-18T08:28:11;4.57;;;2.67;;
53881;SDS011;39794;55.782;37.452;2023-11-18T08:30:41;3.25;;;1.55;;
53881;SDS011;39794;55.782;37.452;2023-11-18T08:33:09;6.65;;;1.75;;
53881;SDS011;39794;55.782;37.452;2023-11-18T08:35:38;5.45;;;2.42;;
53881;SDS011;39794;55.782;37.452;2023-11-18T08:38:09;4.57;;;2.17;;
53881;SDS011;39794;55.782;37.452;2023-11-18T08:40:41;4.53;;;2.35;;
53881;SDS011;39794;55.782;37.452;2023-11-18T08:43:12;4.28;;;2.65;;
53881;SDS011;39794;55.782;37.452;2023-11-18T08:45:41;12.38;;;3.03;;
53881;SDS011;39794;55.782;37.452;2023-11-18T08:48:10;8.10;;;2.50;;
53881;SDS011;39794;55.782;37.452;2023-11-18T08:50:40;4.25;;;2.33;;
53881;SDS011;39794;55.782;37.452;2023-11-18T08:53:10;4.93;;;1.80;;
53881;SDS011;39794;55.782;37.452;2023-11-18T08:55:41;3.67;;;2.20;;
53881;SDS011;39794;55.782;37.452;2023-11-18T08:58:18;6.30;;;2.50;;
53881;SDS011;39794;55.782;37.452;2023-11-18T09:00:49;3.83;;;2.00;;
53881;SDS011;39794;55.782;37.452;2023-11-18T09:03:23;6.38;;;2.20;;
53881;SDS011;39794;55.782;37.452;2023-11-18T09:05:56;2.97;;;1.90;;
53881;SDS011;39794;55.782;37.452;2023-11-18T09:08:27;9.68;;;3.10;;
53881;SDS011;39794;55.782;37.452;2023-11-18T09:10:58;9.10;;;2.83;;
53881;SDS011;39794;55.782;37.452;2023-11-18T09:13:27;5.07;;;2.72;;
53881;SDS011;39794;55.782;37.452;2023-11-18T09:15:57;8.45;;;3.00;;
53881;SDS011;39794;55.782;37.452;2023-11-18T09:18:27;8.75;;;3.30;;
53881;SDS011;39794;55.782;37.452;2023-11-18T09:20:57;7.15;;;2.67;;
53881;SDS011;39794;55.782;37.452;2023-11-18T09:23:28;5.55;;;2.17;;
53881;SDS011;39794;55.782;37.452;2023-11-18T09:26:00;7.07;;;2.53;;
53881;SDS011;39794;55.782;37.452;2023-11-18T09:28:29;4.70;;;2.38;;
53881;SDS011;39794;55.782;37.452;2023-11-18T09:30:58;7.35;;;2.97;;
53881;SDS011;39794;55.782;37.452;2023-11-18T09:33:30;6.72;;;2.50;;
53881;SDS011;39794;55.782;37.452;2023-11-18T09:36:01;8.10;;;3.08;;
53881;SDS011;39794;55.782;37.452;2023-11-18T09:38:34;7.88;;;2.95;;
53881;SDS011;39794;55.782;37.452;2023-11-18T09:41:05;5.18;;;2.83;;
53881;SDS011;39794;55.782;37.452;2023-11-18T09:43:38;8.00;;;2.47;;
53881;SDS011;39794;55.782;37.452;2023-11-18T09:46:14;5.72;;;2.53;;
53881;SDS011;39794;55.782;37.452;2023-11-18T09:48:44;7.63;;;3.00;;
53881;SDS011;39794;55.782;37.452;2023-11-18T09:51:19;11.18;;;3.65;;
53881;SDS011;39794;55.782;37.452;2023-11-18T09:53:50;6.72;;;3.00;;
53881;SDS011;39794;55.782;37.452;2023-11-18T09:56:27;9.02;;;3.05;;
53881;SDS011;39794;55.782;37.452;2023-11-18T09:59:10;6.07;;;2.75;;
53881;SDS011;39794;55.782;37.452;2023-11-18T10:01:44;4.30;;;2.63;;
53881;SDS011;39794;55.782;37.452;2023-11-18T10:04:14;6.72;;;3.22;;
53881;SDS011;39794;55.782;37.452;2023-11-18T10:06:45;5.00;;;2.80;;
53881;SDS011;39794;55.782;37.452;2023-11-18T10:09:15;6.68;;;3.67;;
53881;SDS011;39794;55.782;37.452;2023-11-18T10:11:48;8.75;;;3.05;;
53881;SDS011;39794;55.782;37.452;2023-11-18T10:14:16;14.38;;;2.85;;
53881;SDS011;39794;55.782;37.452;2023-11-18T10:16:45;7.95;;;2.92;;
53881;SDS011;39794;55.782;37.452;2023-11-18T10:19:15;5.70;;;2.88;;
53881;SDS011;39794;55.782;37.452;2023-11-18T10:21:45;6.88;;;2.78;;
53881;SDS011;39794;55.782;37.452;2023-11-18T10:24:16;7.72;;;2.55;;
53881;SDS011;39794;55.782;37.452;2023-11-18T10:26:55;8.02;;;2.95;;
53881;SDS011;39794;55.782;37.452;2023-11-18T10:29:24;4.32;;;2.95;;
53881;SDS011;39794;55.782;37.452;2023-11-18T10:32:04;5.45;;;3.15;;
53881;SDS011;39794;55.782;37.452;2023-11-18T10:34:37;13.50;;;3.40;;
53881;SDS011;39794;55.782;37.452;2023-11-18T10:37:06;10.15;;;3.05;;
53881;SDS011;39794;55.782;37.452;2023-11-18T10:39:38;6.63;;;2.80;;
53881;SDS011;39794;55.782;37.452;2023-11-18T10:42:09;16.25;;;3.30;;
53881;SDS011;39794;55.782;37.452;2023-11-18T10:44:40;7.32;;;3.45;;
53881;SDS011;39794;55.782;37.452;2023-11-18T10:47:24;12.25;;;3.88;;
53881;SDS011;39794;55.782;37.452;2023-11-18T10:49:54;8.95;;;3.53;;
53881;SDS011;39794;55.782;37.452;2023-11-18T10:52:24;8.65;;;3.90;;
53881;SDS011;39794;55.782;37.452;2023-11-18T10:54:57;14.98;;;4.05;;
53881;SDS011;39794;55.782;37.452;2023-11-18T10:57:35;9.70;;;3.40;;
53881;SDS011;39794;55.782;37.452;2023-11-18T11:00:06;8.75;;;3.38;;
53881;SDS011;39794;55.782;37.452;2023-11-18T11:02:42;11.02;;;3.75;;
53881;SDS011;39794;55.782;37.452;2023-11-18T11:05:11;8.45;;;3.63;;
53881;SDS011;39794;55.782;37.452;2023-11-18T11:07:48;10.90;;;3.25;;
53881;SDS011;39794;55.782;37.452;2023-11-18T11:10:17;6.43;;;3.50;;
53881;SDS011;39794;55.782;37.452;2023-11-18T11:12:54;16.10;;;4.10;;
53881;SDS011;39794;55.782;37.452;2023-11-18T11:15:26;11.00;;;4.18;;
53881;SDS011;39794;55.782;37.452;2023-11-18T11:18:14;14.75;;;4.00;;
53881;SDS011;39794;55.782;37.452;2023-11-18T11:20:53;16.08;;;4.18;;
53881;SDS011;39794;55.782;37.452;2023-11-18T11:23:32;12.00;;;3.50;;
53881;SDS011;39794;55.782;37.452;2023-11-18T11:26:13;16.35;;;3.30;;
53881;SDS011;39794;55.782;37.452;2023-11-18T11:29:01;15.52;;;3.63;;
53881;SDS011;39794;55.782;37.452;2023-11-18T11:31:34;15.48;;;4.35;;
53881;SDS011;39794;55.782;37.452;2023-11-18T11:34:09;10.13;;;3.55;;
53881;SDS011;39794;55.782;37.452;2023-11-18T11:36:46;7.70;;;3.58;;
53881;SDS011;39794;55.782;37.452;2023-11-18T11:39:18;10.25;;;3.58;;
53881;SDS011;39794;55.782;37.452;2023-11-18T11:41:53;9.30;;;3.58;;
53881;SDS011;39794;55.782;37.452;2023-11-18T11:44:25;11.13;;;3.42;;
53881;SDS011;39794;55.782;37.452;2023-11-18T11:46:57;22.15;;;7.00;;
53881;SDS011;39794;55.782;37.452;2023-11-18T11:49:30;10.88;;;4.82;;
53881;SDS011;39794;55.782;37.452;2023-11-18T11:52:06;7.57;;;4.13;;
53881;SDS011;39794;55.782;37.452;2023-11-18T11:54:43;16.35;;;4.32;;
53881;SDS011;39794;55.782;37.452;2023-11-18T11:57:16;12.98;;;4.40;;
53881;SDS011;39794;55.782;37.452;2023-11-18T11:59:55;10.95;;;4.80;;
53881;SDS011;39794;55.782;37.452;2023-11-18T12:02:25;14.88;;;4.95;;
53881;SDS011;39794;55.782;37.452;2023-11-18T12:04:56;12.90;;;4.03;;
53881;SDS011;39794;55.782;37.452;2023-11-18T12:07:26;8.27;;;3.50;;
53881;SDS011;39794;55.782;37.452;2023-11-18T12:09:56;9.55;;;4.15;;
53881;SDS011;39794;55.782;37.452;2023-11-18T12:12:26;10.35;;;4.75;;
53881;SDS011;39794;55.782;37.452;2023-11-18T12:14:57;10.23;;;3.85;;
53881;SDS011;39794;55.782;37.452;2023-11-18T12:20:40;7.30;;;3.70;;
53881;SDS011;39794;55.782;37.452;2023-11-18T12:24:15;7.80;;;3.40;;
53881;SDS011;39794;55.782;37.452;2023-11-18T12:26:46;7.25;;;3.67;;
53881;SDS011;39794;55.782;37.452;2023-11-18T12:29:30;14.45;;;4.10;;
53881;SDS011;39794;55.782;37.452;2023-11-18T12:32:02;6.07;;;3.20;;
53881;SDS011;39794;55.782;37.452;2023-11-18T12:37:41;7.38;;;4.25;;
53881;SDS011;39794;55.782;37.452;2023-11-18T12:40:32;11.40;;;3.35;;
53881;SDS011;39794;55.782;37.452;2023-11-18T12:43:14;7.00;;;3.40;;
53881;SDS011;39794;55.782;37.452;2023-11-18T12:46:03;12.27;;;3.42;;
53881;SDS011;39794;55.782;37.452;2023-11-18T12:48:53;7.78;;;3.28;;
53881;SDS011;39794;55.782;37.452;2023-11-18T12:51:26;14.07;;;4.40;;
53881;SDS011;39794;55.782;37.452;2023-11-18T12:53:55;13.90;;;6.13;;
53881;SDS011;39794;55.782;37.452;2023-11-18T12:56:23;13.02;;;3.88;;
53881;SDS011;39794;55.782;37.452;2023-11-18T12:58:55;11.30;;;4.32;;
53881;SDS011;39794;55.782;37.452;2023-11-18T13:01:24;13.30;;;4.10;;
53881;SDS011;39794;55.782;37.452;2023-11-18T13:03:56;7.38;;;3.70;;
53881;SDS011;39794;55.782;37.452;2023-11-18T13:06:27;8.95;;;4.40;;
53881;SDS011;39794;55.782;37.452;2023-11-18T13:08:56;10.73;;;3.78;;
53881;SDS011;39794;55.782;37.452;2023-11-18T13:11:25;18.15;;;4.10;;
53881;SDS011;39794;55.782;37.452;2023-11-18T13:13:54;10.68;;;4.57;;
53881;SDS011;39794;55.782;37.452;2023-11-18T13:16:23;14.48;;;4.43;;
53881;SDS011;39794;55.782;37.452;2023-11-18T13:18:52;9.48;;;3.92;;
53881;SDS011;39794;55.782;37.452;2023-11-18T13:21:24;10.32;;;4.22;;
53881;SDS011;39794;55.782;37.452;2023-11-18T13:24:04;13.70;;;4.38;;
53881;SDS011;39794;55.782;37.452;2023-11-18T13:26:35;16.58;;;4.35;;
53881;SDS011;39794;55.782;37.452;2023-11-18T13:29:05;10.88;;;3.97;;
53881;SDS011;39794;55.782;37.452;2023-11-18T13:31:34;7.82;;;4.10;;
53881;SDS011;39794;55.782;37.452;2023-11-18T13:34:05;17.10;;;4.72;;
53881;SDS011;39794;55.782;37.452;2023-11-18T13:36:35;17.85;;;5.93;;
53881;SDS011;39794;55.782;37.452;2023-11-18T13:39:05;16.85;;;6.68;;
53881;SDS011;39794;55.782;37.452;2023-11-18T13:41:36;20.38;;;7.22;;
53881;SDS011;39794;55.782;37.452;2023-11-18T13:44:05;18.17;;;6.72;;
53881;SDS011;39794;55.782;37.452;2023-11-18T13:46:34;18.42;;;7.40;;
53881;SDS011;39794;55.782;37.452;2023-11-18T13:49:06;16.95;;;6.80;;
53881;SDS011;39794;55.782;37.452;2023-11-18T13:51:37;16.77;;;6.43;;
53881;SDS011;39794;55.782;37.452;2023-11-18T13:54:06;16.27;;;7.07;;
53881;SDS011;39794;55.782;37.452;2023-11-18T13:56:35;15.15;;;6.78;;
53881;SDS011;39794;55.782;37.452;2023-11-18T13:59:04;19.50;;;6.93;;
53881;SDS011;39794;55.782;37.452;2023-11-18T14:01:33;16.15;;;6.80;;
53881;SDS011;39794;55.782;37.452;2023-11-18T14:04:04;19.25;;;7.57;;
53881;SDS011;39794;55.782;37.452;2023-11-18T14:06:35;19.80;;;8.05;;
53881;SDS011;39794;55.782;37.452;2023-11-18T14:09:05;19.27;;;7.25;;
53881;SDS011;39794;55.782;37.452;2023-11-18T14:11:37;25.23;;;7.05;;
53881;SDS011;39794;55.782;37.452;2023-11-18T14:14:06;18.55;;;6.70;;
53881;SDS011;39794;55.782;37.452;2023-11-18T14:16:35;20.27;;;6.65;;
53881;SDS011;39794;55.782;37.452;2023-11-18T14:19:05;10.70;;;5.97;;
53881;SDS011;39794;55.782;37.452;2023-11-18T14:21:34;17.15;;;7.35;;
53881;SDS011;39794;55.782;37.452;2023-11-18T14:24:05;17.48;;;7.03;;
53881;SDS011;39794;55.782;37.452;2023-11-18T14:26:34;15.95;;;6.60;;
53881;SDS011;39794;55.782;37.452;2023-11-18T14:29:03;17.42;;;7.10;;
53881;SDS011;39794;55.782;37.452;2023-11-18T14:31:33;17.05;;;7.22;;
53881;SDS011;39794;55.782;37.452;2023-11-18T14:34:02;19.10;;;8.02;;
53881;SDS011;39794;55.782;37.452;2023-11-18T14:36:30;15.73;;;7.90;;
53881;SDS011;39794;55.782;37.452;2023-11-18T14:38:59;21.00;;;8.18;;
53881;SDS011;39794;55.782;37.452;2023-11-18T14:41:31;33.08;;;8.93;;
53881;SDS011;39794;55.782;37.452;2023-11-18T14:44:00;19.08;;;7.95;;
53881;SDS011;39794;55.782;37.452;2023-11-18T14:46:31;22.25;;;7.63;;
53881;SDS011;39794;55.782;37.452;2023-11-18T14:49:00;19.30;;;7.93;;
53881;SDS011;39794;55.782;37.452;2023-11-18T14:51:28;17.63;;;7.05;;
53881;SDS011;39794;55.782;37.452;2023-11-18T14:53:58;29.23;;;8.43;;
53881;SDS011;39794;55.782;37.452;2023-11-18T14:56:26;18.92;;;8.05;;